Time;durP1;ratioP1;P1;durP2;ratioP2;P2;SDS_P1;SDS_P2;PMS_P1;PMS_P2;Temp;Humidity;BMP_temperature;BMP_pressure;BME280_temperature;BME280_humidity;BME280_pressure;Samples;Min_cycle;Max_cycle;Signal;HPM_P1;HPM_P2
2021/01/28 00:00:19;;;;;;;7.47;6.77;;;;;;;;;;4776310;29;177906;-66
2021/01/28 00:02:48;;;;;;;7.73;6.93;;;;;;;;;;4769187;29;178122;-67
2021/01/28 00:05:15;;;;;;;7.97;7.17;;;;;;;;;;4776515;29;177205;-67
2021/01/28 00:07:42;;;;;;;9.10;7.00;;;;;;;;;;4774066;29;179174;-67
2021/01/28 00:10:10;;;;;;;8.00;7.20;;;;;;;;;;4776256;29;178205;-67
2021/01/28 00:12:37;;;;;;;8.57;7.60;;;;;;;;;;4764521;29;182534;-67
2021/01/28 00:15:04;;;;;;;8.93;8.03;;;;;;;;;;4777280;29;178351;-67
2021/01/28 00:17:32;;;;;;;8.30;7.50;;;;;;;;;;4773283;29;179639;-66
2021/01/28 00:19:59;;;;;;;9.40;8.40;;;;;;;;;;4758418;29;178449;-67
2021/01/28 00:22:25;;;;;;;9.03;8.07;;;;;;;;;;4764376;29;179411;-67
2021/01/28 00:24:52;;;;;;;9.93;8.93;;;;;;;;;;4776001;29;179631;-67
2021/01/28 00:27:19;;;;;;;10.23;8.60;;;;;;;;;;4763462;29;179984;-67
2021/01/28 00:29:45;;;;;;;11.07;8.90;;;;;;;;;;4764664;29;178332;-66
2021/01/28 00:32:12;;;;;;;9.90;8.67;;;;;;;;;;4766696;29;177957;-67
2021/01/28 00:34:39;;;;;;;10.33;8.87;;;;;;;;;;4776724;29;178134;-67
2021/01/28 00:37:06;;;;;;;9.97;8.93;;;;;;;;;;4772859;29;182304;-67
2021/01/28 00:39:33;;;;;;;10.47;9.37;;;;;;;;;;4774210;29;181620;-67
2021/01/28 00:41:59;;;;;;;10.87;9.30;;;;;;;;;;4767349;29;177955;-66
2021/01/28 00:44:26;;;;;;;10.67;9.30;;;;;;;;;;4763887;29;177951;-67
2021/01/28 00:46:53;;;;;;;10.73;8.83;;;;;;;;;;4775025;29;179328;-69
2021/01/28 00:49:22;;;;;;;9.97;8.73;;;;;;;;;;4774653;29;180839;-68
2021/01/28 00:51:48;;;;;;;10.40;8.83;;;;;;;;;;4757265;29;178515;-68
2021/01/28 00:54:15;;;;;;;10.57;8.90;;;;;;;;;;4777368;29;176486;-67
2021/01/28 00:56:42;;;;;;;10.53;9.13;;;;;;;;;;4774604;29;179731;-68
2021/01/28 00:59:10;;;;;;;10.50;9.37;;;;;;;;;;4758202;29;180898;-68
2021/01/28 01:01:38;;;;;;;12.03;9.97;;;;;;;;;;4756437;29;182489;-69
2021/01/28 01:04:05;;;;;;;11.37;10.17;;;;;;;;;;4772119;29;181028;-68
2021/01/28 01:06:32;;;;;;;10.50;9.30;;;;;;;;;;4774384;29;179624;-70
2021/01/28 01:08:59;;;;;;;10.90;9.33;;;;;;;;;;4757656;29;181663;-68
2021/01/28 01:12:00;;;;;;;10.33;9.23;;;;;;;;;;4769946;29;179205;-70
2021/01/28 01:14:27;;;;;;;11.87;9.57;;;;;;;;;;4759351;29;178860;-69
2021/01/28 01:16:54;;;;;;;10.97;9.27;;;;;;;;;;4757473;29;181511;-67
2021/01/28 01:19:25;;;;;;;10.63;9.20;;;;;;;;;;4758932;29;180957;-69
2021/01/28 01:22:03;;;;;;;12.40;10.07;;;;;;;;;;4761562;29;177984;-71
2021/01/28 01:24:30;;;;;;;10.07;8.90;;;;;;;;;;4757783;29;177930;-69
2021/01/28 01:26:59;;;;;;;10.73;9.07;;;;;;;;;;4757179;29;184510;-68
2021/01/28 01:29:26;;;;;;;11.43;9.83;;;;;;;;;;4775024;29;182877;-73
2021/01/28 01:32:19;;;;;;;10.10;8.93;;;;;;;;;;4757019;29;178696;-73
2021/01/28 01:35:09;;;;;;;12.47;9.67;;;;;;;;;;4775486;29;177923;-72
2021/01/28 01:37:36;;;;;;;10.73;9.53;;;;;;;;;;4757889;29;182511;-72
2021/01/28 01:40:05;;;;;;;12.87;10.23;;;;;;;;;;4774618;29;179984;-72
2021/01/28 01:42:39;;;;;;;10.80;9.50;;;;;;;;;;4757838;29;178626;-73
2021/01/28 01:45:07;;;;;;;14.10;10.90;;;;;;;;;;4774946;29;176418;-72
2021/01/28 01:47:41;;;;;;;14.00;11.27;;;;;;;;;;4772375;29;179124;-72
2021/01/28 01:50:29;;;;;;;12.03;10.43;;;;;;;;;;4770830;28;180066;-72
2021/01/28 01:52:57;;;;;;;13.83;11.30;;;;;;;;;;4756442;29;181443;-72
2021/01/28 01:55:24;;;;;;;13.00;11.13;;;;;;;;;;4776555;29;179118;-73
2021/01/28 01:58:03;;;;;;;14.53;11.30;;;;;;;;;;4761111;29;181079;-72
2021/01/28 02:00:33;;;;;;;14.43;11.43;;;;;;;;;;4758906;29;181063;-71
2021/01/28 02:03:13;;;;;;;14.03;11.20;;;;;;;;;;4760500;29;177973;-70
2021/01/28 02:06:09;;;;;;;14.07;10.70;;;;;;;;;;4776268;29;178590;-71
2021/01/28 02:08:57;;;;;;;16.83;13.13;;;;;;;;;;4775115;29;178619;-71
2021/01/28 02:11:50;;;;;;;15.77;12.13;;;;;;;;;;4753683;29;179905;-71
2021/01/28 02:14:27;;;;;;;17.60;13.60;;;;;;;;;;4761100;29;178267;-71
2021/01/28 02:17:17;;;;;;;17.33;12.53;;;;;;;;;;4769466;29;179256;-71
2021/01/28 02:20:26;;;;;;;17.30;12.93;;;;;;;;;;4762414;29;181900;-72
2021/01/28 02:23:11;;;;;;;16.60;12.13;;;;;;;;;;4769544;28;185066;-72
2021/01/28 02:25:39;;;;;;;17.67;13.27;;;;;;;;;;4758751;29;178152;-71
2021/01/28 02:28:11;;;;;;;22.97;15.10;;;;;;;;;;4776069;29;178116;-72
2021/01/28 02:30:42;;;;;;;20.83;13.50;;;;;;;;;;4774354;28;180900;-72
2021/01/28 02:33:12;;;;;;;21.47;14.07;;;;;;;;;;4774422;28;181532;-72
2021/01/28 02:35:56;;;;;;;17.80;12.67;;;;;;;;;;4757989;28;178734;-72
2021/01/28 02:38:26;;;;;;;20.83;13.40;;;;;;;;;;4775257;28;176993;-72
2021/01/28 02:41:03;;;;;;;18.20;13.57;;;;;;;;;;4773606;28;181163;-73
2021/01/28 02:43:42;;;;;;;21.73;14.67;;;;;;;;;;4759588;29;181894;-73
2021/01/28 02:46:20;;;;;;;20.47;13.17;;;;;;;;;;4758510;29;182084;-73
2021/01/28 02:48:55;;;;;;;19.23;13.20;;;;;;;;;;4754826;29;180455;-73
2021/01/28 02:51:40;;;;;;;21.47;14.07;;;;;;;;;;4758056;29;183197;-71
2021/01/28 02:54:12;;;;;;;21.80;14.57;;;;;;;;;;4775773;29;181248;-71
2021/01/28 02:56:40;;;;;;;24.33;14.87;;;;;;;;;;4757917;29;178941;-72
2021/01/28 02:59:08;;;;;;;21.83;13.57;;;;;;;;;;4773897;28;178147;-74
2021/01/28 03:01:41;;;;;;;20.53;13.57;;;;;;;;;;4758609;29;180942;-73
2021/01/28 03:04:09;;;;;;;22.93;14.50;;;;;;;;;;4777291;29;177612;-74
2021/01/28 03:06:43;;;;;;;17.87;13.23;;;;;;;;;;4758308;29;178141;-75
2021/01/28 03:09:11;;;;;;;18.57;13.07;;;;;;;;;;4774325;29;178681;-74
2021/01/28 03:12:02;;;;;;;18.90;13.40;;;;;;;;;;4748462;29;185773;-73
2021/01/28 03:14:54;;;;;;;19.83;13.57;;;;;;;;;;4756556;29;180989;-74
2021/01/28 03:17:21;;;;;;;15.80;11.83;;;;;;;;;;4769029;29;178906;-74
2021/01/28 03:19:55;;;;;;;21.70;14.30;;;;;;;;;;4775269;28;178256;-75
2021/01/28 03:22:22;;;;;;;21.73;13.67;;;;;;;;;;4771937;29;179016;-74
2021/01/28 03:25:12;;;;;;;19.73;12.80;;;;;;;;;;4776158;29;177902;-73
2021/01/28 03:27:39;;;;;;;22.77;13.73;;;;;;;;;;4763643;29;178657;-73
2021/01/28 03:30:11;;;;;;;21.50;13.87;;;;;;;;;;4769037;29;178561;-74
2021/01/28 03:32:38;;;;;;;16.60;11.43;;;;;;;;;;4773884;28;179308;-75
2021/01/28 03:35:06;;;;;;;17.63;11.90;;;;;;;;;;4759375;29;181576;-75
2021/01/28 03:37:33;;;;;;;16.60;11.97;;;;;;;;;;4766551;28;181445;-75
2021/01/28 03:40:00;;;;;;;15.67;11.57;;;;;;;;;;4774333;28;178717;-75
2021/01/28 03:42:28;;;;;;;15.37;11.73;;;;;;;;;;4773274;28;182149;-73
2021/01/28 03:44:55;;;;;;;16.37;11.70;;;;;;;;;;4757744;29;181741;-75
2021/01/28 03:47:25;;;;;;;21.97;13.20;;;;;;;;;;4773831;29;178531;-75
2021/01/28 03:50:20;;;;;;;16.50;11.40;;;;;;;;;;4766456;29;177991;-74
2021/01/28 03:53:12;;;;;;;16.97;11.17;;;;;;;;;;4774547;29;182494;-73
2021/01/28 03:55:57;;;;;;;16.60;11.40;;;;;;;;;;4759042;29;181904;-74
2021/01/28 03:58:26;;;;;;;17.43;11.47;;;;;;;;;;4774807;29;178439;-70
2021/01/28 04:01:13;;;;;;;17.17;11.37;;;;;;;;;;4767531;29;180312;-74
2021/01/28 04:03:42;;;;;;;15.73;11.37;;;;;;;;;;4754358;29;185972;-71
2021/01/28 04:06:27;;;;;;;15.50;10.67;;;;;;;;;;4765806;29;181153;-71
2021/01/28 04:09:05;;;;;;;16.47;11.50;;;;;;;;;;4759543;29;178147;-76
2021/01/28 04:11:54;;;;;;;16.07;11.43;;;;;;;;;;4758998;29;178159;-77
2021/01/28 04:14:40;;;;;;;17.10;11.80;;;;;;;;;;4774267;29;178812;-71
2021/01/28 04:17:12;;;;;;;15.73;11.00;;;;;;;;;;4756236;29;180740;-72
2021/01/28 04:19:40;;;;;;;14.37;10.60;;;;;;;;;;4772852;28;178252;-76
2021/01/28 04:22:07;;;;;;;18.87;11.90;;;;;;;;;;4755350;29;178904;-76
2021/01/28 04:24:36;;;;;;;25.87;13.87;;;;;;;;;;4751171;29;181978;-76
2021/01/28 04:27:04;;;;;;;15.70;10.70;;;;;;;;;;4757380;29;181993;-74
2021/01/28 04:29:48;;;;;;;14.90;11.00;;;;;;;;;;4757171;29;181256;-74
2021/01/28 04:32:26;;;;;;;13.63;10.17;;;;;;;;;;4772626;28;178724;-73
2021/01/28 04:35:11;;;;;;;13.70;9.63;;;;;;;;;;4767763;29;178785;-75
2021/01/28 04:37:39;;;;;;;13.00;9.57;;;;;;;;;;4758505;29;181214;-71
2021/01/28 04:40:17;;;;;;;11.60;8.40;;;;;;;;;;4760311;29;178643;-73
2021/01/28 04:42:45;;;;;;;15.20;9.00;;;;;;;;;;4759220;29;178005;-74
2021/01/28 04:45:21;;;;;;;14.00;9.17;;;;;;;;;;4758633;29;182786;-73
2021/01/28 04:47:50;;;;;;;11.90;8.40;;;;;;;;;;4751257;29;178555;-73
2021/01/28 04:50:37;;;;;;;11.73;8.10;;;;;;;;;;4774081;28;178229;-75
2021/01/28 04:53:20;;;;;;;12.40;8.80;;;;;;;;;;4774997;28;178073;-74
2021/01/28 04:56:08;;;;;;;11.97;8.47;;;;;;;;;;4771197;29;181784;-75
2021/01/28 04:58:35;;;;;;;12.27;8.73;;;;;;;;;;4758199;29;185206;-74
2021/01/28 05:01:12;;;;;;;14.60;9.77;;;;;;;;;;4764471;28;178251;-75
2021/01/28 05:04:11;;;;;;;11.57;8.10;;;;;;;;;;4773297;29;178456;-75
2021/01/28 05:06:56;;;;;;;12.27;8.30;;;;;;;;;;4761441;29;178229;-73
2021/01/28 05:10:00;;;;;;;10.77;8.20;;;;;;;;;;4764782;29;178333;-73
2021/01/28 05:12:54;;;;;;;11.60;7.97;;;;;;;;;;4757309;29;178394;-71
2021/01/28 05:15:35;;;;;;;14.87;9.33;;;;;;;;;;4758446;29;178857;-75
2021/01/28 05:18:28;;;;;;;15.27;9.10;;;;;;;;;;4772595;29;178414;-75
2021/01/28 05:21:19;;;;;;;17.30;9.60;;;;;;;;;;4767190;29;179992;-74
2021/01/28 05:24:05;;;;;;;13.27;8.83;;;;;;;;;;4739820;29;182058;-73
2021/01/28 05:26:42;;;;;;;15.43;9.13;;;;;;;;;;4774278;29;178620;-75
2021/01/28 05:29:30;;;;;;;13.87;9.17;;;;;;;;;;4777440;29;180040;-74
2021/01/28 05:31:59;;;;;;;12.93;8.93;;;;;;;;;;4777407;29;180759;-72
2021/01/28 05:34:30;;;;;;;18.33;10.07;;;;;;;;;;4776043;29;178454;-75
2021/01/28 05:37:16;;;;;;;18.43;10.27;;;;;;;;;;4776188;29;178503;-75
2021/01/28 05:40:17;;;;;;;18.27;10.83;;;;;;;;;;4776187;29;179095;-74
2021/01/28 05:42:54;;;;;;;18.77;10.80;;;;;;;;;;4776083;29;181173;-73
2021/01/28 05:45:23;;;;;;;14.37;9.27;;;;;;;;;;4776670;29;177976;-72
2021/01/28 05:48:26;;;;;;;17.83;10.00;;;;;;;;;;4776601;29;179233;-75
2021/01/28 05:51:13;;;;;;;16.87;10.17;;;;;;;;;;4771621;29;181646;-74
2021/01/28 05:53:40;;;;;;;13.63;9.17;;;;;;;;;;4775382;28;185647;-74
2021/01/28 05:56:12;;;;;;;15.20;9.53;;;;;;;;;;4774038;28;178212;-73
2021/01/28 05:58:38;;;;;;;19.07;9.40;;;;;;;;;;4762532;29;178142;-74
2021/01/28 06:01:15;;;;;;;19.07;10.23;;;;;;;;;;4741703;29;182152;-74
2021/01/28 06:04:07;;;;;;;17.47;9.47;;;;;;;;;;4759074;29;181132;-73
2021/01/28 06:07:15;;;;;;;16.27;8.93;;;;;;;;;;4764295;29;178346;-73
2021/01/28 06:10:03;;;;;;;13.27;8.60;;;;;;;;;;4762156;29;176690;-71
2021/01/28 06:13:03;;;;;;;17.37;9.60;;;;;;;;;;4761438;29;180790;-74
2021/01/28 06:15:49;;;;;;;16.07;8.83;;;;;;;;;;4760786;29;181146;-74
2021/01/28 06:18:36;;;;;;;11.53;7.67;;;;;;;;;;4759474;29;181482;-74
2021/01/28 06:21:28;;;;;;;14.27;7.73;;;;;;;;;;4765248;29;178574;-74
2021/01/28 06:24:26;;;;;;;14.80;7.97;;;;;;;;;;4774130;29;180421;-74
2021/01/28 06:26:56;;;;;;;13.53;8.27;;;;;;;;;;4761222;29;180661;-74
2021/01/28 06:29:29;;;;;;;16.80;9.00;;;;;;;;;;4774728;28;179049;-74
2021/01/28 06:32:05;;;;;;;15.57;8.40;;;;;;;;;;4777046;29;178518;-74
2021/01/28 06:35:07;;;;;;;13.33;7.17;;;;;;;;;;4775903;28;180714;-74
2021/01/28 06:38:03;;;;;;;12.87;7.80;;;;;;;;;;4778076;29;179740;-74
2021/01/28 06:40:52;;;;;;;15.13;6.53;;;;;;;;;;4775823;29;179134;-73
2021/01/28 06:43:45;;;;;;;9.53;6.70;;;;;;;;;;4770611;29;178564;-76
2021/01/28 06:46:41;;;;;;;11.67;7.00;;;;;;;;;;4760644;29;181825;-77
2021/01/28 06:49:42;;;;;;;11.03;6.70;;;;;;;;;;4742861;29;185314;-76
2021/01/28 06:52:12;;;;;;;12.70;6.73;;;;;;;;;;4755589;29;178632;-75
2021/01/28 06:55:05;;;;;;;10.27;6.90;;;;;;;;;;4778227;29;178002;-76
2021/01/28 06:58:13;;;;;;;9.93;6.50;;;;;;;;;;4756382;29;182459;-76
2021/01/28 07:00:55;;;;;;;10.70;6.80;;;;;;;;;;4773216;28;181060;-77
2021/01/28 07:03:41;;;;;;;10.17;6.33;;;;;;;;;;4769758;29;179064;-77
2021/01/28 07:06:32;;;;;;;10.97;5.90;;;;;;;;;;4770208;29;176521;-78
2021/01/28 07:08:59;;;;;;;9.53;5.93;;;;;;;;;;4755674;29;182321;-77
2021/01/28 07:11:35;;;;;;;8.67;6.20;;;;;;;;;;4757861;29;180774;-77
2021/01/28 07:14:32;;;;;;;13.13;6.67;;;;;;;;;;4715603;29;182718;-77
2021/01/28 07:17:16;;;;;;;12.80;6.23;;;;;;;;;;4756595;29;178824;-77
2021/01/28 07:19:52;;;;;;;13.83;6.97;;;;;;;;;;4757033;29;179404;-76
2021/01/28 07:22:39;;;;;;;12.17;5.87;;;;;;;;;;4769907;28;180959;-77
2021/01/28 07:25:24;;;;;;;15.77;7.07;;;;;;;;;;4757590;29;179725;-77
2021/01/28 07:27:55;;;;;;;12.17;6.30;;;;;;;;;;4771332;29;178696;-77
2021/01/28 07:30:40;;;;;;;17.03;7.03;;;;;;;;;;4770587;29;179211;-77
2021/01/28 07:33:27;;;;;;;20.83;7.90;;;;;;;;;;4757278;29;178632;-77
2021/01/28 07:36:28;;;;;;;16.60;7.23;;;;;;;;;;4740351;29;178426;-77
2021/01/28 07:39:32;;;;;;;15.20;7.67;;;;;;;;;;4763801;29;178019;-76
2021/01/28 07:42:20;;;;;;;21.33;7.37;;;;;;;;;;4762862;29;182141;-74
2021/01/28 07:45:25;;;;;;;9.90;6.33;;;;;;;;;;4764696;29;180553;-75
2021/01/28 07:47:59;;;;;;;11.97;6.87;;;;;;;;;;4763828;28;178718;-74
2021/01/28 07:50:46;;;;;;;18.30;7.37;;;;;;;;;;4758495;29;178092;-73
2021/01/28 07:53:35;;;;;;;9.27;6.03;;;;;;;;;;4768388;29;179522;-74
2021/01/28 07:56:02;;;;;;;9.37;6.60;;;;;;;;;;4766213;29;179075;-74
2021/01/28 07:58:35;;;;;;;11.20;6.47;;;;;;;;;;4775049;29;178892;-75
2021/01/28 08:01:12;;;;;;;6.33;4.90;;;;;;;;;;4769654;29;177288;-74
2021/01/28 08:04:00;;;;;;;11.07;5.60;;;;;;;;;;4763072;29;179376;-74
2021/01/28 08:06:27;;;;;;;8.27;5.83;;;;;;;;;;4773669;29;180298;-74
2021/01/28 08:09:06;;;;;;;10.53;6.10;;;;;;;;;;4766939;29;182404;-74
2021/01/28 08:11:34;;;;;;;10.83;6.17;;;;;;;;;;4758901;29;178080;-74
2021/01/28 08:14:01;;;;;;;10.20;6.53;;;;;;;;;;4758516;29;180456;-74
2021/01/28 08:16:29;;;;;;;10.23;6.33;;;;;;;;;;4767680;29;179254;-74
2021/01/28 08:19:02;;;;;;;9.80;6.50;;;;;;;;;;4771681;29;178371;-73
2021/01/28 08:21:30;;;;;;;8.03;5.43;;;;;;;;;;4764749;29;180723;-73
2021/01/28 08:24:09;;;;;;;8.83;6.00;;;;;;;;;;4770158;29;178406;-73
2021/01/28 08:26:38;;;;;;;9.37;5.87;;;;;;;;;;4769152;29;180521;-73
2021/01/28 08:29:11;;;;;;;8.93;6.17;;;;;;;;;;4770151;29;179117;-73
2021/01/28 08:31:40;;;;;;;8.10;5.80;;;;;;;;;;4768592;29;177981;-73
2021/01/28 08:34:08;;;;;;;9.10;5.90;;;;;;;;;;4768852;29;183630;-73
2021/01/28 08:36:43;;;;;;;9.30;6.30;;;;;;;;;;4767212;29;182034;-74
2021/01/28 08:39:16;;;;;;;7.10;5.47;;;;;;;;;;4769251;29;178951;-73
2021/01/28 08:41:44;;;;;;;8.37;5.77;;;;;;;;;;4771083;29;178015;-73
2021/01/28 08:44:13;;;;;;;7.50;6.07;;;;;;;;;;4767562;29;179575;-73
2021/01/28 08:46:41;;;;;;;9.53;5.73;;;;;;;;;;4769218;29;178993;-73
2021/01/28 08:49:15;;;;;;;7.80;5.17;;;;;;;;;;4767105;29;178741;-73
2021/01/28 08:51:44;;;;;;;7.17;5.60;;;;;;;;;;4762470;29;176367;-73
2021/01/28 08:54:23;;;;;;;8.17;5.70;;;;;;;;;;4767467;29;180336;-73
2021/01/28 08:56:50;;;;;;;8.03;5.10;;;;;;;;;;4772281;29;179011;-73
2021/01/28 08:59:18;;;;;;;6.80;4.80;;;;;;;;;;4755453;29;181747;-72
2021/01/28 09:01:49;;;;;;;6.10;4.60;;;;;;;;;;4757602;29;178526;-72
2021/01/28 09:04:27;;;;;;;7.57;5.20;;;;;;;;;;4762244;29;182394;-73
2021/01/28 09:06:54;;;;;;;7.17;4.93;;;;;;;;;;4778408;29;178736;-72
2021/01/28 09:09:23;;;;;;;6.57;4.53;;;;;;;;;;4780110;29;177897;-72
2021/01/28 09:11:50;;;;;;;5.43;4.23;;;;;;;;;;4779749;29;178217;-73
2021/01/28 09:14:34;;;;;;;5.47;4.80;;;;;;;;;;4778540;29;179782;-72
2021/01/28 09:17:02;;;;;;;6.43;4.07;;;;;;;;;;4780821;29;178686;-71
2021/01/28 09:19:31;;;;;;;6.37;3.90;;;;;;;;;;4779049;29;178624;-72
2021/01/28 09:22:01;;;;;;;4.13;3.40;;;;;;;;;;4779814;29;177789;-71
2021/01/28 09:24:32;;;;;;;6.80;3.20;;;;;;;;;;4777806;29;182541;-72
2021/01/28 09:27:04;;;;;;;3.60;3.27;;;;;;;;;;4779640;29;180260;-71
2021/01/28 09:29:33;;;;;;;3.80;3.23;;;;;;;;;;4779983;29;177918;-71
2021/01/28 09:32:07;;;;;;;4.67;3.30;;;;;;;;;;4779629;29;178059;-71
2021/01/28 09:34:35;;;;;;;5.33;2.97;;;;;;;;;;4778733;29;179499;-71
2021/01/28 09:37:05;;;;;;;5.40;3.77;;;;;;;;;;4779447;29;179066;-71
2021/01/28 09:39:45;;;;;;;5.03;3.80;;;;;;;;;;4780185;29;178380;-71
2021/01/28 09:42:13;;;;;;;6.57;4.10;;;;;;;;;;4779706;29;176558;-71
2021/01/28 09:44:44;;;;;;;5.13;4.23;;;;;;;;;;4777440;29;179268;-72
2021/01/28 09:47:13;;;;;;;5.37;4.13;;;;;;;;;;4778242;29;178316;-71
2021/01/28 09:49:40;;;;;;;4.60;3.77;;;;;;;;;;4774828;29;181576;-70
2021/01/28 09:52:21;;;;;;;5.50;3.60;;;;;;;;;;4776119;29;179264;-70
2021/01/28 09:54:56;;;;;;;8.57;3.27;;;;;;;;;;4772296;28;180464;-70
2021/01/28 09:57:22;;;;;;;6.07;3.53;;;;;;;;;;4772406;29;178990;-69
2021/01/28 09:59:49;;;;;;;5.67;3.80;;;;;;;;;;4760897;29;178007;-70
2021/01/28 10:02:21;;;;;;;6.10;3.03;;;;;;;;;;4759892;29;179277;-70
2021/01/28 10:04:48;;;;;;;3.63;2.93;;;;;;;;;;4760066;29;179287;-70
2021/01/28 10:07:15;;;;;;;3.70;3.17;;;;;;;;;;4761437;29;178577;-70
2021/01/28 10:09:43;;;;;;;4.73;2.97;;;;;;;;;;4760797;29;178705;-70
2021/01/28 10:12:11;;;;;;;5.57;3.40;;;;;;;;;;4760694;29;178523;-69
2021/01/28 10:14:38;;;;;;;4.07;2.83;;;;;;;;;;4757942;29;182325;-70
2021/01/28 10:17:05;;;;;;;4.30;3.10;;;;;;;;;;4765052;29;182041;-70
2021/01/28 10:19:31;;;;;;;5.77;3.20;;;;;;;;;;4776121;29;178163;-70
2021/01/28 10:21:58;;;;;;;8.60;2.93;;;;;;;;;;4759819;29;178013;-71
2021/01/28 10:24:26;;;;;;;14.87;3.30;;;;;;;;;;4765250;29;180161;-70
2021/01/28 10:26:53;;;;;;;4.30;3.03;;;;;;;;;;4774675;29;178346;-71
2021/01/28 10:29:20;;;;;;;3.43;2.90;;;;;;;;;;4775696;29;178072;-73
2021/01/28 10:31:46;;;;;;;4.70;3.10;;;;;;;;;;4776737;29;178623;-72
2021/01/28 10:34:14;;;;;;;5.83;3.43;;;;;;;;;;4772127;29;179507;-71
2021/01/28 10:36:41;;;;;;;6.40;3.50;;;;;;;;;;4767068;29;178326;-71
2021/01/28 10:39:07;;;;;;;3.57;3.03;;;;;;;;;;4774757;29;182731;-72
2021/01/28 10:41:34;;;;;;;4.13;3.50;;;;;;;;;;4774448;29;177894;-71
2021/01/28 10:44:01;;;;;;;5.40;3.53;;;;;;;;;;4777572;29;179100;-71
2021/01/28 10:46:27;;;;;;;4.80;3.87;;;;;;;;;;4776073;29;178002;-72
2021/01/28 10:48:54;;;;;;;5.20;3.47;;;;;;;;;;4777893;29;178418;-72
2021/01/28 10:51:21;;;;;;;4.07;3.67;;;;;;;;;;4767530;29;179158;-71
2021/01/28 10:53:48;;;;;;;3.97;3.53;;;;;;;;;;4766412;29;180563;-71
2021/01/28 10:56:15;;;;;;;4.33;3.33;;;;;;;;;;4760858;29;181603;-71
2021/01/28 10:58:41;;;;;;;4.27;3.40;;;;;;;;;;4774675;29;178106;-71
2021/01/28 11:01:08;;;;;;;4.93;3.30;;;;;;;;;;4772771;29;178578;-73
2021/01/28 11:03:36;;;;;;;3.57;3.13;;;;;;;;;;4774890;29;182790;-76
2021/01/28 11:06:04;;;;;;;4.70;3.40;;;;;;;;;;4773586;28;182153;-79
2021/01/28 11:08:35;;;;;;;6.20;3.47;;;;;;;;;;4758857;29;178395;-78
2021/01/28 11:11:02;;;;;;;4.90;3.67;;;;;;;;;;4760354;29;178080;-77
2021/01/28 11:13:36;;;;;;;4.80;3.03;;;;;;;;;;4756473;29;178610;-78
2021/01/28 11:16:02;;;;;;;5.73;3.20;;;;;;;;;;4770890;28;181337;-77
2021/01/28 11:18:29;;;;;;;4.17;3.53;;;;;;;;;;4796851;28;177929;-77
2021/01/28 11:20:57;;;;;;;5.63;3.07;;;;;;;;;;4785954;28;176838;-76
2021/01/28 11:23:26;;;;;;;4.30;3.33;;;;;;;;;;4777033;29;179790;-76
2021/01/28 11:25:55;;;;;;;4.40;3.13;;;;;;;;;;4776799;29;180780;-76
2021/01/28 11:28:21;;;;;;;3.73;3.33;;;;;;;;;;4776451;29;181285;-78
2021/01/28 11:30:50;;;;;;;3.33;3.03;;;;;;;;;;4777381;29;178813;-76
2021/01/28 11:33:19;;;;;;;4.53;2.73;;;;;;;;;;4787637;28;179171;-78
2021/01/28 11:35:46;;;;;;;5.20;2.97;;;;;;;;;;4795981;28;178646;-78
2021/01/28 11:38:12;;;;;;;3.00;2.70;;;;;;;;;;4770358;28;178394;-77
2021/01/28 11:40:39;;;;;;;4.93;3.17;;;;;;;;;;4769516;29;178558;-76
2021/01/28 11:43:07;;;;;;;3.80;3.30;;;;;;;;;;4755246;29;180224;-78
2021/01/28 11:45:36;;;;;;;10.90;2.90;;;;;;;;;;4763122;29;177445;-79
2021/01/28 11:48:04;;;;;;;12.83;3.27;;;;;;;;;;4770477;29;177995;-80
2021/01/28 11:50:34;;;;;;;2.80;2.00;;;;;;;;;;4763555;29;178932;-77
2021/01/28 11:53:03;;;;;;;2.07;1.83;;;;;;;;;;4768726;29;184986;-76
2021/01/28 11:55:29;;;;;;;2.33;1.90;;;;;;;;;;4773440;29;180799;-76
2021/01/28 11:57:57;;;;;;;3.07;2.30;;;;;;;;;;4774581;29;178318;-76
2021/01/28 12:00:25;;;;;;;2.23;2.00;;;;;;;;;;4774486;29;177985;-77
2021/01/28 12:02:52;;;;;;;1.80;1.70;;;;;;;;;;4760242;29;179728;-77
2021/01/28 12:05:20;;;;;;;2.77;1.80;;;;;;;;;;4760152;29;179172;-75
2021/01/28 12:07:48;;;;;;;2.10;1.90;;;;;;;;;;4771943;29;179343;-77
2021/01/28 12:10:16;;;;;;;2.77;1.70;;;;;;;;;;4767110;29;177202;-78
2021/01/28 12:12:46;;;;;;;2.77;1.90;;;;;;;;;;4761554;28;178658;-78
2021/01/28 12:15:14;;;;;;;2.67;2.00;;;;;;;;;;4771502;29;180953;-78
2021/01/28 12:17:40;;;;;;;2.30;2.10;;;;;;;;;;4772946;29;181316;-78
2021/01/28 12:20:08;;;;;;;1.80;1.60;;;;;;;;;;4773988;29;179039;-77
2021/01/28 12:22:35;;;;;;;2.10;1.77;;;;;;;;;;4772369;29;180561;-80
2021/01/28 12:25:02;;;;;;;2.80;1.80;;;;;;;;;;4764701;29;179053;-78
2021/01/28 12:27:29;;;;;;;12.63;2.37;;;;;;;;;;4757593;29;179169;-79
2021/01/28 12:29:56;;;;;;;2.20;2.00;;;;;;;;;;4770209;29;178735;-79
2021/01/28 12:32:23;;;;;;;2.50;2.20;;;;;;;;;;4772572;29;183259;-76
2021/01/28 12:34:50;;;;;;;3.17;2.20;;;;;;;;;;4772379;29;181275;-78
2021/01/28 12:37:16;;;;;;;3.80;2.20;;;;;;;;;;4773223;29;178552;-78
2021/01/28 12:39:43;;;;;;;2.17;1.97;;;;;;;;;;4773586;29;177898;-78
2021/01/28 12:42:10;;;;;;;2.70;2.20;;;;;;;;;;4771289;29;182410;-76
2021/01/28 12:44:37;;;;;;;2.47;2.13;;;;;;;;;;4773486;29;180834;-77
2021/01/28 12:47:04;;;;;;;2.37;2.17;;;;;;;;;;4774480;29;178905;-76
2021/01/28 12:49:32;;;;;;;5.33;2.37;;;;;;;;;;4772358;29;178801;-76
2021/01/28 12:51:59;;;;;;;5.07;2.23;;;;;;;;;;4769214;29;178541;-78
2021/01/28 12:54:26;;;;;;;2.50;2.27;;;;;;;;;;4770991;29;179022;-77
2021/01/28 12:56:53;;;;;;;4.27;2.50;;;;;;;;;;4768794;29;178389;-78
2021/01/28 12:59:19;;;;;;;2.33;2.10;;;;;;;;;;4775027;29;177295;-76
2021/01/28 13:01:46;;;;;;;2.37;1.70;;;;;;;;;;4772625;29;179527;-77
2021/01/28 13:04:13;;;;;;;2.93;2.10;;;;;;;;;;4774983;28;177962;-77
2021/01/28 13:06:41;;;;;;;2.23;1.70;;;;;;;;;;4759166;29;181721;-76
2021/01/28 13:09:08;;;;;;;2.10;1.90;;;;;;;;;;4761096;29;178029;-80
2021/01/28 13:11:40;;;;;;;2.80;1.70;;;;;;;;;;4775019;29;179995;-77
2021/01/28 13:14:07;;;;;;;2.47;1.93;;;;;;;;;;4775399;29;182076;-78
2021/01/28 13:16:34;;;;;;;2.67;2.23;;;;;;;;;;4771421;29;178234;-81
2021/01/28 13:19:05;;;;;;;4.33;2.20;;;;;;;;;;4775913;29;178442;-76
2021/01/28 13:21:31;;;;;;;3.13;1.83;;;;;;;;;;4775455;29;178834;-75
2021/01/28 13:23:58;;;;;;;2.20;2.00;;;;;;;;;;4776433;29;178450;-77
2021/01/28 13:26:29;;;;;;;2.40;2.10;;;;;;;;;;4776791;29;177916;-75
2021/01/28 13:28:56;;;;;;;4.00;2.30;;;;;;;;;;4775993;29;177963;-76
2021/01/28 13:31:23;;;;;;;9.80;2.20;;;;;;;;;;4756593;29;183349;-77
2021/01/28 13:33:50;;;;;;;3.07;2.33;;;;;;;;;;4775178;28;181588;-75
2021/01/28 13:36:17;;;;;;;4.00;2.10;;;;;;;;;;4776710;29;178661;-75
2021/01/28 13:38:45;;;;;;;4.80;2.50;;;;;;;;;;4776134;29;178274;-75
2021/01/28 13:41:13;;;;;;;5.03;2.20;;;;;;;;;;4775084;29;179775;-76
2021/01/28 13:43:40;;;;;;;4.50;2.20;;;;;;;;;;4771737;29;179146;-74
2021/01/28 13:46:07;;;;;;;3.20;2.10;;;;;;;;;;4772604;29;178353;-75
2021/01/28 13:48:34;;;;;;;2.90;2.00;;;;;;;;;;4773606;29;177235;-74
2021/01/28 13:51:00;;;;;;;7.83;2.67;;;;;;;;;;4772062;29;179817;-72
2021/01/28 13:53:27;;;;;;;2.07;1.87;;;;;;;;;;4777244;29;178681;-72
2021/01/28 13:55:54;;;;;;;8.50;2.47;;;;;;;;;;4774017;29;182868;-72
2021/01/28 13:58:21;;;;;;;3.53;2.00;;;;;;;;;;4778295;29;178010;-71
2021/01/28 14:00:48;;;;;;;11.43;2.13;;;;;;;;;;4778116;29;179624;-72
2021/01/28 14:03:15;;;;;;;3.50;2.10;;;;;;;;;;4777706;29;178240;-73
2021/01/28 14:05:42;;;;;;;3.67;2.00;;;;;;;;;;4779185;29;177894;-72
2021/01/28 14:08:08;;;;;;;4.20;2.03;;;;;;;;;;4778030;29;178026;-71
2021/01/28 14:10:35;;;;;;;4.97;2.00;;;;;;;;;;4777481;29;179183;-72
2021/01/28 14:13:02;;;;;;;3.13;1.60;;;;;;;;;;4772707;29;178205;-72
2021/01/28 14:15:29;;;;;;;1.70;1.50;;;;;;;;;;4761684;29;178259;-73
2021/01/28 14:17:56;;;;;;;3.97;1.70;;;;;;;;;;4778864;29;178386;-74
2021/01/28 14:20:24;;;;;;;61.93;32.87;;;;;;;;;;4776636;29;182705;-74
2021/01/28 14:22:51;;;;;;;5.60;3.30;;;;;;;;;;4776516;29;182386;-75
2021/01/28 14:25:19;;;;;;;82.30;37.43;;;;;;;;;;4778349;29;178328;-74
2021/01/28 14:27:46;;;;;;;18.53;4.47;;;;;;;;;;4775535;29;178534;-74
2021/01/28 14:30:14;;;;;;;18.43;5.03;;;;;;;;;;4777540;29;178327;-74
2021/01/28 14:32:40;;;;;;;3.57;1.97;;;;;;;;;;4777867;29;178733;-74
2021/01/28 14:35:08;;;;;;;9.10;4.63;;;;;;;;;;4778287;29;178548;-74
2021/01/28 14:37:35;;;;;;;47.50;24.93;;;;;;;;;;4779406;29;177273;-76
2021/01/28 14:40:02;;;;;;;33.57;17.23;;;;;;;;;;4775537;29;179201;-74
2021/01/28 14:42:29;;;;;;;149.13;74.70;;;;;;;;;;4776462;29;179681;-75
2021/01/28 14:44:55;;;;;;;53.27;25.07;;;;;;;;;;4775623;29;181261;-73
2021/01/28 14:47:22;;;;;;;103.63;50.10;;;;;;;;;;4776793;29;178248;-78
2021/01/28 14:49:50;;;;;;;336.13;166.90;;;;;;;;;;4776887;29;179336;-76
2021/01/28 14:52:16;;;;;;;132.53;65.90;;;;;;;;;;4775391;29;178455;-75
2021/01/28 14:54:43;;;;;;;10.03;6.17;;;;;;;;;;4776868;29;177922;-76
2021/01/28 14:57:10;;;;;;;10.50;4.87;;;;;;;;;;4778388;29;178534;-74